Richard B Russell Airport
KRMG : now visible

Airfield :











YOU CAN JOIN US ON...

 
LOGIN :

Register | Disclaimer

   EN    FR    IT 

 









Legend :    VFR   Marginal VFR   IFR   Intensive IFR   Very Intensive IFR
Visi :
Ceiling :
>= 8 km
>= 3000ft
5 to 8 km
1000 to 3000 ft
1500m to 5 km
500 to 1000 ft
800 to 1500m
200 to 500 ft
< 800m
< 200 ft
Symbols :   Thunderstorms  Fog  Heavy snow  Heavy precipitations  Wind > 20 kt






- Airport Elevation : 644 ft


KRMG - Richard B Russell

CURRENT METAR :
  • 191341Z AUTO 00000KT 10SM -RA FEW007 SCT017 BKN044 23/21 A3009 RMK AO2 RAE22B33 P0008 T02280211

EXPIRED METARs :
  • 191334Z AUTO 10SM -RA FEW007 BKN017 BKN040 23/21 A3009 RMK AO2 RAE22B33 P0008 T02280211
  • 191325Z AUTO 9SM FEW006 SCT017 BKN038 23/21 A3009 RMK AO2 RAE22 P0008 T02280206
  • 191259Z AUTO 3SM RA BR SCT004 BKN018 OVC041 22/21 A3009 RMK AO2 P0001 T02220206
  • 191243Z AUTO 23004KT 7SM -RA SCT004 BKN026 OVC055 22/21 A3010 RMK AO2 P0001 T02220206
  • 191235Z AUTO 00000KT 8SM -RA BKN026 BKN055 OVC070 22/21 A3009 RMK AO2 P0001 T02220206
  • 191153Z AUTO 6SM -RA BR SCT025 BKN045 OVC060 22/21 A3008 RMK AO2 RAB38 SLP176 P0004 60006 70089 T02220206 10228 20222 53003
  • 191053Z AUTO 05004KT 10SM FEW038 BKN048 BKN120 22/21 A3007 RMK AO2 SLP175 T02220206

TAF N/A
KZTL FIR / North America



MET'MAP, your aeronautical weather chart ! - Copyright ORBIFLY December 2007 - Disclaimer

ORBIFLY MET'MAP TEAM :

Programming & Development : Alexandra Zaïnal
Concept & original design : Baudouin d'Aumeries
Assistance for programming : Marc-Olivier Méhu
Technical & hardware support : Manuel Goepfert

Contact : metmap@orbifly.com




SOURCES & CREDITS :

   NOAA       Earth
Advisory